Shelby, NC

8:02 AM EDT on November 01, 2014 (GMT -0400)
Shelby Municipal | Change Station
CLOSE
Current Station
Airport
Location: Shelby,
Elevation: 846 ft
Nearby Weather Stations
Active Advisory: Freeze Warning Active Notice: Public Information Statement

Elev 846 ft 35.26 °N, 81.60 °W | Updated 7 minutes ago

Overcast
Overcast
41 °F
Feels Like 34 °F
N
13
Wind Variable Wind from North
Gusts 17 mph

Today
High -- | Low -- °F
--% Chance of Precip.
Yesterday
High -- | Low -- °F
Precip. -- in
7:47 AM 6:31 PM
Waxing Gibbous, 66% visible
Pressure 29.76 in
Visibility 10.0 miles
Clouds Scattered Clouds 3100 ft
Overcast 3800 ft
Windchill 34 °F
Dew Point 34 °F
Humidity 76%
Rainfall 0.28 in
Snow Depth Not available.
UV 0 out of 12
Pollen .40 out of 12
Air Quality Not available.
Flu Activity Not available.
METAR KEHO 011155Z AUTO 36011G15KT 10SM -DZ SCT031 OVC038 05/01 A2976 RMK AO2 60003 70046 T00500010 10061 20043

More Conditions Fewer Conditions

Pressure 29.76 in
Visibility 10.0 miles
Clouds Scattered Clouds 3100 ft
Overcast 3800 ft
Windchill 34 °F
Dew Point 34 °F
Humidity 76%
Rainfall 0.28 in
Snow Depth Not available.
UV 0 out of 12
Pollen .40 out of 12
Air Quality Not available.
Flu Activity Not available.
METAR KEHO 011155Z AUTO 36011G15KT 10SM -DZ SCT031 OVC038 05/01 A2976 RMK AO2 60003 70046 T00500010 10061 20043

More Conditions Fewer Conditions

10-Day Weather Forecast

Almanac

Astronomy

Nov. 01, 2014 Rise Set
Actual Time
Civil Twilight
Nautical Twilight
Astronomical Twilight
Moon
Length of Visible Light
Length of Day
Tomorrow will be .
, % of the Moon is Illuminated

Today's Extremes

State Highs State Lows

Community

WunderPhotos

Upload Photos

1,766,907 photos uploaded!

WunderBlogs® & News

Nearby

Air Quality

  Air Quality AQ Index Pollutant
Not available.

Snow Depth

Station Depth Elevation

Earthquake Activity

City Distance Mag. Time & Date
Minimum magnitude displayed is 2.5.

Coastal Water Temperatures

Place Temperature

Nearby Weather Stations